Time;durP1;ratioP1;P1;durP2;ratioP2;P2;SDS_P1;SDS_P2;PMS_P1;PMS_P2;Temp;Humidity;BMP_temperature;BMP_pressure;BME280_temperature;BME280_humidity;BME280_pressure;Samples;Min_cycle;Max_cycle;Signal;HPM_P1;HPM_P2
2023/01/27 00:02:10;;;;;;;179.30;10.15;;;;;;;-148.24;100.00;61531.34;4995318;28;20042;-56
2023/01/27 00:04:35;;;;;;;197.07;12.07;;;;;;;-148.24;100.00;61531.34;4994489;28;20541;-54
2023/01/27 00:07:01;;;;;;;153.45;10.38;;;;;;;-148.24;100.00;61531.34;4997347;28;20402;-56
2023/01/27 00:09:26;;;;;;;166.98;7.25;;;;;;;-148.24;100.00;61531.34;4995290;28;20498;-54
2023/01/27 00:14:35;;;;;;;121.85;11.20;;;;;;;-148.24;100.00;61531.34;4999757;28;20076;-56
2023/01/27 00:17:01;;;;;;;135.18;11.07;;;;;;;-148.24;100.00;61531.34;4999680;28;20404;-54
2023/01/27 00:19:26;;;;;;;184.00;11.65;;;;;;;-148.24;100.00;61531.34;4999408;28;20413;-56
2023/01/27 00:24:35;;;;;;;195.50;13.25;;;;;;;-148.24;100.00;61531.34;4997601;28;20133;-53
2023/01/27 00:27:02;;;;;;;143.88;10.40;;;;;;;-148.24;100.00;61531.34;4998282;28;20038;-55
2023/01/27 00:29:27;;;;;;;163.32;8.13;;;;;;;-148.24;100.00;61531.34;4999223;28;20060;-53
2023/01/27 00:34:38;;;;;;;214.75;12.25;;;;;;;-148.24;100.00;61531.34;4999294;28;20041;-56
2023/01/27 00:37:04;;;;;;;144.70;8.70;;;;;;;-148.24;100.00;61531.34;4999136;28;20065;-56
2023/01/27 00:39:29;;;;;;;157.43;11.63;;;;;;;-148.24;100.00;61531.34;4998986;28;20057;-54
2023/01/27 00:41:54;;;;;;;179.80;12.20;;;;;;;-148.24;100.00;61531.34;4998380;28;20161;-55
2023/01/27 00:44:20;;;;;;;132.65;9.43;;;;;;;-148.24;100.00;61531.34;4999838;28;20026;-54
2023/01/27 00:46:45;;;;;;;160.52;12.38;;;;;;;-148.24;100.00;61531.34;4998759;28;20065;-54
2023/01/27 00:49:12;;;;;;;128.77;9.93;;;;;;;-148.24;100.00;61531.34;4999556;28;20044;-53
2023/01/27 00:51:38;;;;;;;154.07;11.60;;;;;;;-148.24;100.00;61531.34;4998354;28;20768;-54
2023/01/27 00:54:04;;;;;;;206.88;12.77;;;;;;;-148.24;100.00;61531.34;4981725;28;20076;-53
2023/01/27 00:56:29;;;;;;;141.77;9.05;;;;;;;-148.24;100.00;61531.34;4998832;28;20045;-54
2023/01/27 00:58:54;;;;;;;177.88;12.57;;;;;;;-148.24;100.00;61531.34;4999167;28;20028;-56
2023/01/27 01:01:20;;;;;;;130.68;10.63;;;;;;;-148.24;100.00;61531.34;4978834;28;20104;-55
2023/01/27 01:03:46;;;;;;;140.05;10.52;;;;;;;-148.24;100.00;61531.34;4999108;28;20150;-57
2023/01/27 01:06:13;;;;;;;164.60;10.23;;;;;;;-148.24;100.00;61531.34;4998627;28;20033;-54
2023/01/27 01:08:39;;;;;;;132.07;10.45;;;;;;;-148.24;100.00;61531.34;4998889;28;20056;-54
2023/01/27 01:11:06;;;;;;;162.57;12.27;;;;;;;-148.24;100.00;61531.34;4998145;28;21105;-54
2023/01/27 01:13:33;;;;;;;155.50;10.90;;;;;;;-148.24;100.00;61531.34;4998338;28;20716;-55
2023/01/27 01:16:08;;;;;;;138.88;9.95;;;;;;;-148.24;100.00;61531.34;4998790;28;20084;-54
2023/01/27 01:18:33;;;;;;;169.25;10.25;;;;;;;-148.24;100.00;61531.34;4998390;28;20033;-54
2023/01/27 01:20:59;;;;;;;133.88;10.55;;;;;;;-148.24;100.00;61531.34;4998377;28;20037;-57
2023/01/27 01:23:25;;;;;;;184.63;12.63;;;;;;;-148.24;100.00;61531.34;4998756;28;20018;-57
2023/01/27 01:25:57;;;;;;;132.27;8.52;;;;;;;-148.24;100.00;61531.34;4998852;28;20038;-56
2023/01/27 01:28:22;;;;;;;;;;;;;;;-148.24;100.00;61531.34;4998971;28;20057;-54
2023/01/27 01:30:48;;;;;;;138.70;11.07;;;;;;;-148.24;100.00;61531.34;4998032;28;20013;-54
2023/01/27 01:33:14;;;;;;;89.53;6.93;;;;;;;-148.24;100.00;61531.34;4999137;28;20692;-57
2023/01/27 01:35:40;;;;;;;190.65;12.10;;;;;;;-148.24;100.00;61531.34;4997872;28;20034;-55
2023/01/27 01:38:05;;;;;;;124.35;9.65;;;;;;;-148.24;100.00;61531.34;4999310;28;20809;-55
2023/01/27 01:40:31;;;;;;;143.80;11.82;;;;;;;-148.24;100.00;61531.34;4998078;28;20084;-53
2023/01/27 01:43:04;;;;;;;165.32;11.95;;;;;;;-148.24;100.00;61531.34;4998667;28;20089;-54
2023/01/27 01:45:32;;;;;;;149.70;9.02;;;;;;;-148.24;100.00;61531.34;4997640;28;20048;-54
2023/01/27 01:48:12;;;;;;;197.77;11.95;;;;;;;-148.24;100.00;61531.34;4998190;28;20032;-53
2023/01/27 01:50:41;;;;;;;164.65;11.60;;;;;;;-148.24;100.00;61531.34;4997577;28;20037;-54
2023/01/27 01:53:09;;;;;;;146.32;11.43;;;;;;;-148.24;100.00;61531.34;4998694;28;20030;-54
2023/01/27 01:55:36;;;;;;;143.38;12.23;;;;;;;-148.24;100.00;61531.34;4979456;28;20045;-54
2023/01/27 01:58:03;;;;;;;197.80;13.15;;;;;;;-148.24;100.00;61531.34;4997940;28;20237;-53
2023/01/27 02:00:29;;;;;;;167.48;11.75;;;;;;;-148.24;100.00;61531.34;4997851;28;20037;-53
2023/01/27 02:02:55;;;;;;;183.27;11.43;;;;;;;-148.24;100.00;61531.34;4997215;28;20458;-53
2023/01/27 02:05:28;;;;;;;143.95;8.70;;;;;;;-148.24;100.00;61531.34;4996791;28;20073;-53
2023/01/27 02:08:00;;;;;;;150.20;12.57;;;;;;;-148.24;100.00;61531.34;4996552;28;20029;-55
2023/01/27 02:10:26;;;;;;;150.98;12.30;;;;;;;-148.24;100.00;61531.34;4996470;28;20132;-53
2023/01/27 02:12:51;;;;;;;122.80;10.70;;;;;;;-148.24;100.00;61531.34;4998528;28;20030;-55
2023/01/27 02:15:17;;;;;;;190.57;13.15;;;;;;;-148.24;100.00;61531.34;4997549;28;20068;-52
2023/01/27 02:17:43;;;;;;;139.60;10.95;;;;;;;-148.24;100.00;61531.34;4998434;28;20037;-53
2023/01/27 02:20:17;;;;;;;159.23;12.85;;;;;;;-148.24;100.00;61531.34;4997537;28;20055;-54
2023/01/27 02:23:02;;;;;;;140.38;11.77;;;;;;;-148.24;100.00;61531.34;4998551;28;20025;-53
2023/01/27 02:25:33;;;;;;;180.55;11.18;;;;;;;-148.24;100.00;61531.34;4997594;28;20046;-54
2023/01/27 02:28:00;;;;;;;164.57;12.97;;;;;;;-148.24;100.00;61531.34;4998106;28;20655;-56
2023/01/27 02:30:26;;;;;;;148.30;9.95;;;;;;;-148.24;100.00;61531.34;4999767;28;20123;-54
2023/01/27 02:32:51;;;;;;;164.77;13.80;;;;;;;-148.24;100.00;61531.34;5001842;28;20025;-57
2023/01/27 02:35:23;;;;;;;135.10;11.35;;;;;;;-148.24;100.00;61531.34;5001764;28;20034;-54
2023/01/27 02:37:50;;;;;;;149.77;12.20;;;;;;;-148.24;100.00;61531.34;5001470;28;20033;-55
2023/01/27 02:40:16;;;;;;;143.00;9.82;;;;;;;-148.24;100.00;61531.34;5001401;28;20038;-53
2023/01/27 02:42:42;;;;;;;201.85;14.00;;;;;;;-148.24;100.00;61531.34;5001394;28;20083;-55
2023/01/27 02:45:07;;;;;;;112.63;9.68;;;;;;;-148.24;100.00;61531.34;5001703;28;20030;-56
2023/01/27 02:47:33;;;;;;;137.15;10.35;;;;;;;-148.24;100.00;61531.34;5001273;28;20030;-56
2023/01/27 02:49:58;;;;;;;183.40;12.55;;;;;;;-148.24;100.00;61531.34;5000395;28;20503;-55
2023/01/27 02:52:24;;;;;;;129.40;10.38;;;;;;;-148.24;100.00;61531.34;5000948;28;20597;-57
2023/01/27 02:54:49;;;;;;;145.73;8.20;;;;;;;-148.24;100.00;61531.34;4984318;28;20109;-56
2023/01/27 02:57:14;;;;;;;113.55;11.40;;;;;;;-148.24;100.00;61531.34;5000917;28;20151;-55
2023/01/27 02:59:40;;;;;;;188.85;12.98;;;;;;;-148.24;100.00;61531.34;5000939;28;20029;-54
2023/01/27 03:02:06;;;;;;;209.35;14.10;;;;;;;-148.24;100.00;61531.34;5000197;28;20066;-54
2023/01/27 03:04:31;;;;;;;167.55;11.85;;;;;;;-148.24;100.00;61531.34;5002733;28;20105;-54
2023/01/27 03:06:56;;;;;;;166.18;11.18;;;;;;;-148.24;100.00;61531.34;5001139;28;20108;-56
2023/01/27 03:09:22;;;;;;;155.60;10.43;;;;;;;-148.24;100.00;61531.34;5001675;28;20040;-55
2023/01/27 03:19:59;;;;;;;148.82;10.38;;;;;;;-148.24;100.00;61531.34;5000654;28;20612;-55
2023/01/27 03:22:25;;;;;;;199.65;11.90;;;;;;;-148.24;100.00;61531.34;5000046;28;20030;-54
2023/01/27 03:24:50;;;;;;;145.32;9.70;;;;;;;-148.24;100.00;61531.34;5000758;28;20026;-56
2023/01/27 03:27:16;;;;;;;130.73;8.73;;;;;;;-148.24;100.00;61531.34;5000664;28;20092;-55
2023/01/27 03:29:56;;;;;;;229.75;10.40;;;;;;;-148.24;100.00;61531.34;5000272;28;20061;-57
2023/01/27 03:32:24;;;;;;;119.53;7.53;;;;;;;-148.24;100.00;61531.34;5000218;28;20185;-59
2023/01/27 03:34:49;;;;;;;179.25;11.82;;;;;;;-148.24;100.00;61531.34;5000907;28;20048;-55
2023/01/27 03:48:11;;;;;;;133.32;9.32;;;;;;;-148.24;100.00;61531.34;5000581;28;20033;-54
2023/01/27 03:50:42;;;;;;;135.35;9.32;;;;;;;-148.24;100.00;61531.34;4999528;28;20042;-56
2023/01/27 03:53:11;;;;;;;182.73;11.07;;;;;;;-148.24;100.00;61531.34;4999755;28;20034;-55
2023/01/27 03:55:37;;;;;;;141.57;9.15;;;;;;;-148.24;100.00;61531.34;4999961;28;20041;-54
2023/01/27 03:58:17;;;;;;;193.57;11.10;;;;;;;-148.24;100.00;61531.34;4999804;28;20488;-54
2023/01/27 04:00:43;;;;;;;157.52;10.40;;;;;;;-148.24;100.00;61531.34;4999518;28;20045;-56
2023/01/27 04:08:38;;;;;;;161.60;9.40;;;;;;;-148.24;100.00;61531.34;4999746;28;20041;-54
2023/01/27 04:13:48;;;;;;;145.35;9.70;;;;;;;-148.24;100.00;61531.34;5000658;28;20041;-54
2023/01/27 04:16:15;;;;;;;152.40;7.97;;;;;;;-148.24;100.00;61531.34;4999195;28;20029;-55
2023/01/27 04:18:41;;;;;;;151.30;10.65;;;;;;;-148.24;100.00;61531.34;4981224;28;20022;-54
2023/01/27 04:21:06;;;;;;;145.70;9.85;;;;;;;-148.24;100.00;61531.34;4998975;28;20083;-53
2023/01/27 04:23:32;;;;;;;219.93;11.95;;;;;;;-148.24;100.00;61531.34;4999315;28;20681;-55
2023/01/27 04:25:59;;;;;;;131.60;10.10;;;;;;;-148.24;100.00;61531.34;4999230;28;20046;-52
2023/01/27 04:28:25;;;;;;;168.52;10.07;;;;;;;-148.24;100.00;61531.34;4999618;28;20112;-53
2023/01/27 04:30:50;;;;;;;170.43;9.52;;;;;;;-148.24;100.00;61531.34;4998461;28;20068;-55
2023/01/27 04:33:15;;;;;;;132.70;9.98;;;;;;;-148.24;100.00;61531.34;4999551;28;20029;-58
2023/01/27 04:35:44;;;;;;;224.38;11.73;;;;;;;-148.24;100.00;61531.34;4998742;28;20060;-57
2023/01/27 04:38:10;;;;;;;149.25;7.10;;;;;;;-148.24;100.00;61531.34;4999447;28;20384;-56
2023/01/27 04:40:35;;;;;;;160.23;10.00;;;;;;;-148.24;100.00;61531.34;4998074;28;20072;-55
2023/01/27 04:43:01;;;;;;;180.75;9.85;;;;;;;-148.24;100.00;61531.34;4999039;28;20789;-57
2023/01/27 04:45:26;;;;;;;145.75;10.38;;;;;;;-148.24;100.00;61531.34;4998561;28;20073;-57
2023/01/27 04:47:51;;;;;;;194.48;10.90;;;;;;;-148.24;100.00;61531.34;4998996;28;20049;-56
2023/01/27 04:50:17;;;;;;;151.98;11.57;;;;;;;-148.24;100.00;61531.34;4998194;28;20136;-56
2023/01/27 04:52:44;;;;;;;146.38;10.25;;;;;;;-148.24;100.00;61531.34;4998998;28;20029;-57
2023/01/27 04:55:10;;;;;;;202.55;9.48;;;;;;;-148.24;100.00;61531.34;4998696;28;20030;-57
2023/01/27 04:57:35;;;;;;;152.95;8.88;;;;;;;-148.24;100.00;61531.34;4999132;28;20096;-54
2023/01/27 07:08:49;;;;;;;153.13;9.45;;;;;;;-148.24;100.00;61531.34;4997431;28;20100;-54
2023/01/27 07:11:14;;;;;;;192.02;11.25;;;;;;;-148.24;100.00;61531.34;4997402;28;20124;-54
2023/01/27 07:13:39;;;;;;;151.90;9.05;;;;;;;-148.24;100.00;61531.34;4999726;28;20117;-55
2023/01/27 07:16:05;;;;;;;175.25;10.85;;;;;;;-148.24;100.00;61531.34;4998639;28;20053;-55
2023/01/27 07:18:30;;;;;;;194.45;10.55;;;;;;;-148.24;100.00;61531.34;4999215;28;20802;-54
2023/01/27 07:20:56;;;;;;;172.38;10.23;;;;;;;-148.24;100.00;61531.34;4999185;28;20038;-55
2023/01/27 07:23:21;;;;;;;217.35;12.25;;;;;;;-148.24;100.00;61531.34;4999299;28;20048;-56
2023/01/27 07:25:47;;;;;;;172.43;9.50;;;;;;;-148.24;100.00;61531.34;4998545;28;20083;-56
2023/01/27 07:28:12;;;;;;;132.70;9.88;;;;;;;-148.24;100.00;61531.34;4999942;28;20037;-55
2023/01/27 07:30:38;;;;;;;208.32;11.35;;;;;;;-148.24;100.00;61531.34;4998259;28;20049;-54
2023/01/27 07:33:05;;;;;;;136.25;10.02;;;;;;;-148.24;100.00;61531.34;4999938;28;20030;-55
2023/01/27 07:35:31;;;;;;;159.02;10.32;;;;;;;-148.24;100.00;61531.34;4998778;28;20156;-54
2023/01/27 07:37:58;;;;;;;166.45;10.52;;;;;;;-148.24;100.00;61531.34;4999356;28;20562;-55
2023/01/27 07:40:23;;;;;;;153.90;9.68;;;;;;;-148.24;100.00;61531.34;4998588;28;20056;-56
2023/01/27 07:42:48;;;;;;;250.85;12.57;;;;;;;-148.24;100.00;61531.34;4999205;28;20025;-54
2023/01/27 07:45:14;;;;;;;163.90;10.40;;;;;;;-148.24;100.00;61531.34;4998665;28;20749;-56
2023/01/27 07:47:39;;;;;;;158.40;10.73;;;;;;;-148.24;100.00;61531.34;4998853;28;20049;-54
2023/01/27 07:50:05;;;;;;;198.25;8.32;;;;;;;-148.24;100.00;61531.34;4997674;28;20152;-54
2023/01/27 07:52:31;;;;;;;134.57;8.73;;;;;;;-148.24;100.00;61531.34;4999198;28;20032;-56
2023/01/27 07:54:56;;;;;;;188.98;11.52;;;;;;;-148.24;100.00;61531.34;4998741;28;20037;-54
2023/01/27 07:57:21;;;;;;;175.57;9.65;;;;;;;-148.24;100.00;61531.34;4998615;28;20045;-55
2023/01/27 07:59:47;;;;;;;202.90;9.35;;;;;;;-148.24;100.00;61531.34;4980792;28;20411;-56
2023/01/27 08:02:13;;;;;;;194.50;10.98;;;;;;;-148.24;100.00;61531.34;4997676;28;20060;-54
2023/01/27 08:04:38;;;;;;;172.60;10.57;;;;;;;-148.24;100.00;61531.34;4999248;28;20030;-55
2023/01/27 08:07:05;;;;;;;183.27;11.40;;;;;;;-148.24;100.00;61531.34;4998156;28;20498;-54
2023/01/27 08:09:30;;;;;;;174.38;10.48;;;;;;;-148.24;100.00;61531.34;4998132;28;20726;-55
2023/01/27 08:11:55;;;;;;;125.05;6.80;;;;;;;-148.24;100.00;61531.34;4998025;28;20053;-55
2023/01/27 08:14:21;;;;;;;239.88;11.32;;;;;;;-148.24;100.00;61531.34;4998154;28;20085;-55
2023/01/27 08:16:46;;;;;;;141.48;10.02;;;;;;;-148.24;100.00;61531.34;4997372;28;20052;-55
2023/01/27 08:19:12;;;;;;;164.32;10.48;;;;;;;-148.24;100.00;61531.34;4998652;28;20545;-54
2023/01/27 08:21:37;;;;;;;171.05;9.35;;;;;;;-148.24;100.00;61531.34;4997821;28;20070;-57
2023/01/27 08:24:03;;;;;;;163.07;11.38;;;;;;;-148.24;100.00;61531.34;4998592;28;20065;-58
2023/01/27 08:26:28;;;;;;;190.27;9.63;;;;;;;-148.24;100.00;61531.34;4997269;28;20617;-57
2023/01/27 08:28:53;;;;;;;175.30;10.75;;;;;;;-148.24;100.00;61531.34;4998320;28;20613;-58
2023/01/27 08:31:19;;;;;;;145.52;10.27;;;;;;;-148.24;100.00;61531.34;4997466;28;20045;-56
2023/01/27 08:33:49;;;;;;;205.45;11.00;;;;;;;-148.24;100.00;61531.34;4980073;28;20121;-56
2023/01/27 08:36:17;;;;;;;158.65;9.35;;;;;;;-148.24;100.00;61531.34;4997762;28;20038;-56
2023/01/27 08:38:43;;;;;;;195.32;9.15;;;;;;;-148.24;100.00;61531.34;4998212;28;20669;-56
2023/01/27 08:41:12;;;;;;;157.93;9.23;;;;;;;-148.24;100.00;61531.34;4997218;28;20925;-58
2023/01/27 08:43:37;;;;;;;161.57;6.18;;;;;;;-148.24;100.00;61531.34;4998099;28;20141;-58
2023/01/27 08:46:05;;;;;;;160.88;6.82;;;;;;;-148.24;100.00;61531.34;4997248;28;20908;-58
2023/01/27 08:48:31;;;;;;;146.45;9.13;;;;;;;-148.24;100.00;61531.34;4998228;28;20024;-57
2023/01/27 08:50:58;;;;;;;179.57;7.90;;;;;;;-148.24;100.00;61531.34;4996439;28;20116;-56
2023/01/27 08:53:25;;;;;;;152.07;9.15;;;;;;;-148.24;100.00;61531.34;4997965;28;20040;-56
2023/01/27 08:55:53;;;;;;;182.85;10.27;;;;;;;-148.24;100.00;61531.34;4997375;28;20041;-57
2023/01/27 08:58:18;;;;;;;194.38;8.10;;;;;;;-148.24;100.00;61531.34;4997733;28;20033;-58
2023/01/27 09:00:43;;;;;;;157.65;9.68;;;;;;;-148.24;100.00;61531.34;4997142;28;20090;-56
2023/01/27 09:03:09;;;;;;;193.38;11.43;;;;;;;-148.24;100.00;61531.34;4997438;28;20083;-58
2023/01/27 09:05:35;;;;;;;149.70;10.25;;;;;;;-148.24;100.00;61531.34;4997488;28;20068;-56
2023/01/27 09:08:01;;;;;;;155.60;9.82;;;;;;;-148.24;100.00;61531.34;4997739;28;20025;-56
2023/01/27 09:10:26;;;;;;;185.63;9.30;;;;;;;-148.24;100.00;61531.34;4996161;28;20041;-57
2023/01/27 09:12:51;;;;;;;129.38;8.45;;;;;;;-148.24;100.00;61531.34;4997774;28;20418;-57
2023/01/27 09:15:17;;;;;;;185.15;11.85;;;;;;;-148.24;100.00;61531.34;4997108;28;20045;-57
2023/01/27 09:17:42;;;;;;;164.45;7.35;;;;;;;-148.24;100.00;61531.34;4997018;28;20783;-56
2023/01/27 09:20:09;;;;;;;141.48;8.82;;;;;;;-148.24;100.00;61531.34;4997015;28;20104;-57
2023/01/27 09:22:38;;;;;;;206.70;10.38;;;;;;;-148.24;100.00;61531.34;4996848;28;20087;-55
2023/01/27 09:25:05;;;;;;;161.82;7.63;;;;;;;-148.24;100.00;61531.34;4979356;28;20119;-55
2023/01/27 09:27:30;;;;;;;174.15;7.13;;;;;;;-148.24;100.00;61531.34;4997062;28;20041;-55
2023/01/27 09:29:56;;;;;;;170.50;10.90;;;;;;;-148.24;100.00;61531.34;4978329;28;20026;-55
2023/01/27 09:32:21;;;;;;;140.25;6.15;;;;;;;-148.24;100.00;61531.34;4996110;28;20038;-56
2023/01/27 09:34:46;;;;;;;196.38;11.93;;;;;;;-148.24;100.00;61531.34;4997040;28;20103;-55
2023/01/27 09:37:12;;;;;;;173.25;10.88;;;;;;;-148.24;100.00;61531.34;4997113;28;20073;-55
2023/01/27 09:39:44;;;;;;;195.77;11.98;;;;;;;-148.24;100.00;61531.34;5000658;28;20029;-57
2023/01/27 09:42:16;;;;;;;165.73;9.37;;;;;;;-148.24;100.00;61531.34;5000124;28;20038;-56
2023/01/27 09:45:08;;;;;;;158.35;7.30;;;;;;;-148.24;100.00;61531.34;5000962;28;20298;-56
2023/01/27 09:47:45;;;;;;;145.63;7.65;;;;;;;-148.24;100.00;61531.34;5000717;28;20546;-58
2023/01/27 09:50:39;;;;;;;203.82;11.70;;;;;;;-148.24;100.00;61531.34;5000245;28;20034;-55
2023/01/27 09:53:14;;;;;;;199.82;10.43;;;;;;;-148.24;100.00;61531.34;5001041;28;20028;-56
2023/01/27 09:56:06;;;;;;;150.55;9.27;;;;;;;-148.24;100.00;61531.34;5000934;28;20045;-55
2023/01/27 09:59:03;;;;;;;140.60;10.02;;;;;;;-148.24;100.00;61531.34;5001167;28;20661;-55
2023/01/27 10:01:44;;;;;;;150.85;10.25;;;;;;;-148.24;100.00;61531.34;4999810;28;20042;-55
2023/01/27 10:04:36;;;;;;;181.05;7.57;;;;;;;-148.24;100.00;61531.34;4982575;28;20386;-55
2023/01/27 10:07:08;;;;;;;132.95;9.85;;;;;;;-148.24;100.00;61531.34;5000518;28;20076;-57
2023/01/27 10:10:00;;;;;;;169.23;7.95;;;;;;;-148.24;100.00;61531.34;4999836;28;20129;-56
2023/01/27 10:12:45;;;;;;;192.15;11.20;;;;;;;-148.24;100.00;61531.34;5000014;28;20590;-56
2023/01/27 10:15:40;;;;;;;133.00;6.85;;;;;;;-148.24;100.00;61531.34;5000430;28;20026;-56
2023/01/27 10:18:08;;;;;;;149.73;9.15;;;;;;;-148.24;100.00;61531.34;5000088;28;20054;-55
2023/01/27 10:20:36;;;;;;;186.32;8.13;;;;;;;-148.24;100.00;61531.34;4999082;28;20057;-55
2023/01/27 10:23:10;;;;;;;168.65;8.52;;;;;;;-148.24;100.00;61531.34;5000768;28;20044;-56
2023/01/27 10:26:01;;;;;;;192.23;8.88;;;;;;;-148.24;100.00;61531.34;4999702;28;20176;-57
2023/01/27 10:28:29;;;;;;;145.48;9.38;;;;;;;-148.24;100.00;61531.34;5000457;28;20034;-57
2023/01/27 10:31:04;;;;;;;171.63;8.32;;;;;;;-148.24;100.00;61531.34;4998614;28;20657;-55
2023/01/27 10:33:39;;;;;;;125.93;7.50;;;;;;;-148.24;100.00;61531.34;4983024;28;20037;-55
2023/01/27 10:36:17;;;;;;;151.25;6.95;;;;;;;-148.24;100.00;61531.34;5000084;28;20132;-56
2023/01/27 10:38:48;;;;;;;161.02;7.57;;;;;;;-148.24;100.00;61531.34;4999214;28;20030;-56
2023/01/27 10:41:25;;;;;;;151.18;9.18;;;;;;;-148.24;100.00;61531.34;5000067;28;20042;-56
2023/01/27 10:44:09;;;;;;;173.55;10.43;;;;;;;-148.24;100.00;61531.34;5000218;28;20062;-56
2023/01/27 10:47:00;;;;;;;125.57;5.97;;;;;;;-148.24;100.00;61531.34;5000125;28;20064;-57
2023/01/27 10:49:50;;;;;;;138.77;7.72;;;;;;;-148.24;100.00;61531.34;4981973;28;20030;-56
2023/01/27 10:52:21;;;;;;;159.77;8.25;;;;;;;-148.24;100.00;61531.34;4999064;28;20535;-56
2023/01/27 10:54:51;;;;;;;143.77;8.23;;;;;;;-148.24;100.00;61531.34;5000340;28;20124;-56
2023/01/27 10:57:24;;;;;;;179.13;9.27;;;;;;;-148.24;100.00;61531.34;4999241;28;20038;-55
2023/01/27 11:00:11;;;;;;;185.80;10.38;;;;;;;-148.24;100.00;61531.34;4999916;28;20018;-56
2023/01/27 11:02:44;;;;;;;154.23;9.32;;;;;;;-148.24;100.00;61531.34;4981977;28;20080;-56
2023/01/27 11:05:30;;;;;;;186.52;10.68;;;;;;;-148.24;100.00;61531.34;4999382;28;20033;-55
2023/01/27 11:08:01;;;;;;;139.38;7.05;;;;;;;-148.24;100.00;61531.34;5000064;28;20076;-56
2023/01/27 11:10:35;;;;;;;185.20;8.45;;;;;;;-148.24;100.00;61531.34;4998856;28;20041;-58
2023/01/27 11:13:04;;;;;;;149.77;8.77;;;;;;;-148.24;100.00;61531.34;4999853;28;20025;-56
2023/01/27 11:15:33;;;;;;;203.88;9.70;;;;;;;-148.24;100.00;61531.34;4999244;28;20131;-57
2023/01/27 11:18:14;;;;;;;121.43;8.75;;;;;;;-148.24;100.00;61531.34;4999132;28;20033;-57
2023/01/27 11:20:44;;;;;;;216.77;10.55;;;;;;;-148.24;100.00;61531.34;4998028;28;20579;-56
2023/01/27 11:23:25;;;;;;;151.07;10.05;;;;;;;-148.24;100.00;61531.34;5000194;28;20025;-55
2023/01/27 11:26:18;;;;;;;193.13;10.95;;;;;;;-148.24;100.00;61531.34;4998697;28;20038;-55
2023/01/27 11:28:46;;;;;;;187.85;9.05;;;;;;;-148.24;100.00;61531.34;4998877;28;20029;-56
2023/01/27 11:31:21;;;;;;;158.48;7.28;;;;;;;-148.24;100.00;61531.34;4998783;28;20157;-55
2023/01/27 11:34:08;;;;;;;218.93;12.15;;;;;;;-148.24;100.00;61531.34;4999382;28;20025;-56
2023/01/27 11:36:33;;;;;;;152.95;10.25;;;;;;;-148.24;100.00;61531.34;4998823;28;20127;-56
2023/01/27 11:39:03;;;;;;;193.35;8.50;;;;;;;-148.24;100.00;61531.34;4998762;28;20029;-56
2023/01/27 11:41:35;;;;;;;145.75;6.60;;;;;;;-148.24;100.00;61531.34;4998346;28;20069;-56
2023/01/27 11:44:11;;;;;;;205.13;9.50;;;;;;;-148.24;100.00;61531.34;4978786;28;20795;-56
2023/01/27 11:46:37;;;;;;;173.00;8.93;;;;;;;-148.24;100.00;61531.34;4998784;28;20544;-55
2023/01/27 11:49:03;;;;;;;201.63;8.07;;;;;;;-148.24;100.00;61531.34;4998589;28;20129;-56
2023/01/27 11:51:37;;;;;;;151.35;7.95;;;;;;;-148.24;100.00;61531.34;4998143;28;20041;-57
2023/01/27 11:54:20;;;;;;;192.85;9.63;;;;;;;-148.24;100.00;61531.34;4998895;28;20091;-56
2023/01/27 11:56:48;;;;;;;179.20;10.55;;;;;;;-148.24;100.00;61531.34;4998241;28;20046;-56
2023/01/27 11:59:22;;;;;;;217.60;8.63;;;;;;;-148.24;100.00;61531.34;4997652;28;20582;-56
2023/01/27 12:02:01;;;;;;;137.73;8.07;;;;;;;-148.24;100.00;61531.34;4996807;28;20072;-56
2023/01/27 12:04:48;;;;;;;174.23;9.82;;;;;;;-148.24;100.00;61531.34;4998723;28;20030;-56
2023/01/27 12:07:53;;;;;;;159.25;8.00;;;;;;;-148.24;100.00;61531.34;4998561;28;20041;-56
2023/01/27 12:10:24;;;;;;;176.30;8.45;;;;;;;-148.24;100.00;61531.34;4997623;28;20060;-56
2023/01/27 12:12:50;;;;;;;167.10;9.45;;;;;;;-148.24;100.00;61531.34;4998503;28;20034;-56
2023/01/27 12:15:17;;;;;;;124.22;8.40;;;;;;;-148.24;100.00;61531.34;4998257;28;20038;-56
2023/01/27 12:17:48;;;;;;;177.88;7.82;;;;;;;-148.24;100.00;61531.34;4997798;28;20030;-55
2023/01/27 12:20:25;;;;;;;165.98;9.15;;;;;;;-148.24;100.00;61531.34;4997539;28;20538;-56
2023/01/27 12:23:26;;;;;;;152.52;5.65;;;;;;;3.61;100.00;98256.72;5036201;28;20382;-55
2023/01/27 12:25:58;;;;;;;218.45;10.23;;;;;;;3.40;100.00;98262.13;5021543;28;20044;-55
2023/01/27 12:28:29;;;;;;;144.15;8.50;;;;;;;3.42;100.00;98263.03;5030376;28;20051;-58
2023/01/27 12:31:03;;;;;;;196.10;9.18;;;;;;;3.63;100.00;98261.91;5031341;28;20467;-57
2023/01/27 12:33:31;;;;;;;137.43;7.15;;;;;;;3.69;100.00;98259.53;5032566;28;20098;-54
2023/01/27 12:36:04;;;;;;;179.52;9.15;;;;;;;3.49;100.00;98257.22;5031867;28;20033;-55
2023/01/27 12:38:35;;;;;;;163.77;9.55;;;;;;;3.92;100.00;98264.44;5033296;28;20036;-55
2023/01/27 12:41:04;;;;;;;191.60;10.88;;;;;;;3.75;100.00;98269.13;5030784;28;20139;-58
2023/01/27 12:43:30;;;;;;;156.45;7.63;;;;;;;3.32;100.00;98267.03;5033319;28;20482;-54
2023/01/27 12:46:03;;;;;;;160.15;7.43;;;;;;;3.12;100.00;98263.88;5030594;28;20095;-55
2023/01/27 12:48:32;;;;;;;177.30;10.65;;;;;;;3.39;100.00;98260.38;5031651;28;20032;-55
2023/01/27 12:51:13;;;;;;;146.77;9.00;;;;;;;3.82;100.00;98259.88;5030778;28;20037;-56
2023/01/27 12:53:42;;;;;;;174.75;9.85;;;;;;;3.47;100.00;98253.75;5022994;28;20029;-57
2023/01/27 12:56:18;;;;;;;195.85;11.00;;;;;;;4.69;100.00;98251.81;5025007;28;20542;-55
2023/01/27 12:58:58;;;;;;;199.93;11.55;;;;;;;3.72;100.00;98259.63;5026200;28;20143;-56
2023/01/27 13:01:35;;;;;;;164.60;10.82;;;;;;;4.55;100.00;98262.66;5027556;28;20556;-57
2023/01/27 13:04:25;;;;;;;179.43;11.80;;;;;;;7.47;100.00;98244.09;5027603;28;20500;-57
2023/01/27 13:06:56;;;;;;;124.72;8.68;;;;;;;6.43;100.00;98249.44;5029045;28;20037;-56
2023/01/27 13:09:35;;;;;;;222.25;12.77;;;;;;;5.44;100.00;98250.91;5023066;28;20108;-56
2023/01/27 13:12:11;;;;;;;139.68;7.63;;;;;;;3.78;100.00;98257.22;5025307;28;20148;-56
2023/01/27 13:14:40;;;;;;;149.50;9.20;;;;;;;4.22;100.00;98255.81;5028498;28;20029;-57
2023/01/27 13:17:26;;;;;;;117.28;6.35;;;;;;;3.73;100.00;98261.34;5028423;28;20496;-57
2023/01/27 13:19:53;;;;;;;172.15;10.52;;;;;;;3.42;100.00;98269.88;5029543;28;20570;-60
2023/01/27 13:22:21;;;;;;;132.82;10.75;;;;;;;3.66;100.00;98267.16;5021463;28;20116;-55
2023/01/27 13:24:50;;;;;;;154.80;11.00;;;;;;;3.74;100.00;98278.53;5026002;28;20041;-55
2023/01/27 13:27:20;;;;;;;137.48;8.15;;;;;;;3.51;100.00;98278.75;5029409;28;20033;-57
2023/01/27 13:30:09;;;;;;;187.68;9.75;;;;;;;3.72;100.00;98274.16;5027915;28;20152;-56
2023/01/27 13:32:36;;;;;;;136.20;6.85;;;;;;;4.31;100.00;98260.34;5024670;28;20998;-57
2023/01/27 13:35:17;;;;;;;191.57;9.90;;;;;;;4.87;100.00;98281.44;5016190;28;20111;-57
2023/01/27 13:37:55;;;;;;;219.32;10.63;;;;;;;5.40;100.00;98274.91;5011972;28;20968;-57
2023/01/27 13:40:27;;;;;;;207.35;12.05;;;;;;;4.91;100.00;98280.69;5013135;28;20492;-58
2023/01/27 13:43:01;;;;;;;157.25;8.75;;;;;;;4.20;100.00;98287.50;5013947;28;20618;-57
2023/01/27 13:45:52;;;;;;;155.38;10.10;;;;;;;3.61;100.00;98279.84;5015834;28;20028;-57
2023/01/27 13:48:25;;;;;;;200.95;9.85;;;;;;;2.85;100.00;98286.16;5015867;28;20045;-58
2023/01/27 13:51:07;;;;;;;171.85;7.28;;;;;;;2.62;100.00;98285.41;5014836;28;20042;-56
2023/01/27 13:53:33;;;;;;;;;;;;;;;2.51;100.00;98297.00;5012340;28;20091;-57